sensor_id;sensor_type;location;lat;lon;timestamp;pressure;altitude;pressure_sealevel;temperature;humidity
76794;BME280;65745;50.278;18.192;2023-04-06T00:02:26;100165.80;;;-1.08;64.63
76794;BME280;65745;50.278;18.192;2023-04-06T00:04:59;100164.06;;;-1.04;64.75
76794;BME280;65745;50.278;18.192;2023-04-06T00:07:31;100165.79;;;-1.08;65.53
76794;BME280;65745;50.278;18.192;2023-04-06T00:10:07;100162.76;;;-1.03;65.79
76794;BME280;65745;50.278;18.192;2023-04-06T00:12:39;100160.39;;;-0.98;65.47
76794;BME280;65745;50.278;18.192;2023-04-06T00:15:12;100152.90;;;-0.92;65.36
76794;BME280;65745;50.278;18.192;2023-04-06T00:17:44;100155.98;;;-0.91;65.21
76794;BME280;65745;50.278;18.192;2023-04-06T00:20:17;100153.42;;;-0.96;64.87
76794;BME280;65745;50.278;18.192;2023-04-06T00:22:50;100153.11;;;-0.96;64.74
76794;BME280;65745;50.278;18.192;2023-04-06T00:25:22;100150.43;;;-0.93;64.92
76794;BME280;65745;50.278;18.192;2023-04-06T00:27:54;100150.38;;;-1.01;64.62
76794;BME280;65745;50.278;18.192;2023-04-06T00:30:27;100148.95;;;-1.07;65.06
76794;BME280;65745;50.278;18.192;2023-04-06T00:32:59;100148.20;;;-1.13;64.92
76794;BME280;65745;50.278;18.192;2023-04-06T00:35:31;100147.10;;;-1.19;65.50
76794;BME280;65745;50.278;18.192;2023-04-06T00:38:04;100147.84;;;-1.30;66.46
76794;BME280;65745;50.278;18.192;2023-04-06T00:40:36;100150.27;;;-1.44;66.30
76794;BME280;65745;50.278;18.192;2023-04-06T00:43:10;100145.03;;;-1.51;66.19
76794;BME280;65745;50.278;18.192;2023-04-06T00:45:43;100146.75;;;-1.53;65.02
76794;BME280;65745;50.278;18.192;2023-04-06T00:48:16;100149.73;;;-1.58;65.98
76794;BME280;65745;50.278;18.192;2023-04-06T00:50:48;100150.84;;;-1.66;66.25
76794;BME280;65745;50.278;18.192;2023-04-06T00:53:21;100156.34;;;-1.74;66.65
76794;BME280;65745;50.278;18.192;2023-04-06T00:55:54;100155.95;;;-1.80;66.72
76794;BME280;65745;50.278;18.192;2023-04-06T00:58:26;100155.13;;;-1.82;66.18
76794;BME280;65745;50.278;18.192;2023-04-06T01:01:04;100154.23;;;-1.84;65.94
76794;BME280;65745;50.278;18.192;2023-04-06T01:03:38;100151.87;;;-1.85;66.07
76794;BME280;65745;50.278;18.192;2023-04-06T01:06:14;100152.62;;;-1.88;66.41
76794;BME280;65745;50.278;18.192;2023-04-06T01:08:48;100154.38;;;-1.85;66.22
76794;BME280;65745;50.278;18.192;2023-04-06T01:11:23;100155.10;;;-1.77;66.34
76794;BME280;65745;50.278;18.192;2023-04-06T01:13:56;100154.17;;;-1.69;66.72
76794;BME280;65745;50.278;18.192;2023-04-06T01:16:38;100158.59;;;-1.66;67.31
76794;BME280;65745;50.278;18.192;2023-04-06T01:19:14;100154.20;;;-1.59;66.48
76794;BME280;65745;50.278;18.192;2023-04-06T01:21:49;100152.40;;;-1.52;65.88
76794;BME280;65745;50.278;18.192;2023-04-06T01:24:33;100151.91;;;-1.51;65.93
76794;BME280;65745;50.278;18.192;2023-04-06T01:27:28;100153.60;;;-1.51;65.73
76794;BME280;65745;50.278;18.192;2023-04-06T01:30:20;100151.44;;;-1.55;66.01
76794;BME280;65745;50.278;18.192;2023-04-06T01:32:59;100150.14;;;-1.69;66.33
76794;BME280;65745;50.278;18.192;2023-04-06T01:35:58;100148.95;;;-1.83;66.69
76794;BME280;65745;50.278;18.192;2023-04-06T01:38:31;100150.79;;;-1.92;66.80
76794;BME280;65745;50.278;18.192;2023-04-06T01:41:03;100151.30;;;-2.04;67.60
76794;BME280;65745;50.278;18.192;2023-04-06T01:43:46;100151.41;;;-2.04;66.70
76794;BME280;65745;50.278;18.192;2023-04-06T01:46:19;100151.02;;;-2.08;66.30
76794;BME280;65745;50.278;18.192;2023-04-06T01:48:52;100146.23;;;-2.13;66.23
76794;BME280;65745;50.278;18.192;2023-04-06T01:51:31;100145.70;;;-2.16;66.71
76794;BME280;65745;50.278;18.192;2023-04-06T01:54:06;100143.77;;;-2.26;67.33
76794;BME280;65745;50.278;18.192;2023-04-06T01:57:01;100143.86;;;-2.36;67.35
76794;BME280;65745;50.278;18.192;2023-04-06T01:59:37;100145.27;;;-2.37;66.95
76794;BME280;65745;50.278;18.192;2023-04-06T02:02:14;100141.81;;;-2.34;66.55
76794;BME280;65745;50.278;18.192;2023-04-06T02:04:54;100145.38;;;-2.29;66.74
76794;BME280;65745;50.278;18.192;2023-04-06T02:07:26;100142.64;;;-2.30;66.75
76794;BME280;65745;50.278;18.192;2023-04-06T02:09:59;100146.48;;;-2.25;66.80
76794;BME280;65745;50.278;18.192;2023-04-06T02:12:38;100149.27;;;-2.18;67.16
76794;BME280;65745;50.278;18.192;2023-04-06T02:15:12;100150.42;;;-2.14;67.82
76794;BME280;65745;50.278;18.192;2023-04-06T02:17:45;100143.96;;;-2.05;67.66
76794;BME280;65745;50.278;18.192;2023-04-06T02:20:17;100146.64;;;-1.91;67.57
76794;BME280;65745;50.278;18.192;2023-04-06T02:22:50;100141.70;;;-1.83;67.42
76794;BME280;65745;50.278;18.192;2023-04-06T02:25:23;100144.38;;;-1.74;66.87
76794;BME280;65745;50.278;18.192;2023-04-06T02:27:55;100143.87;;;-1.67;66.94
76794;BME280;65745;50.278;18.192;2023-04-06T02:30:27;100147.30;;;-1.66;66.22
76794;BME280;65745;50.278;18.192;2023-04-06T02:33:00;100147.11;;;-1.80;66.17
76794;BME280;65745;50.278;18.192;2023-04-06T02:35:34;100144.92;;;-1.92;66.64
76794;BME280;65745;50.278;18.192;2023-04-06T02:38:07;100145.02;;;-2.04;67.16
76794;BME280;65745;50.278;18.192;2023-04-06T02:40:39;100146.17;;;-2.14;67.10
76794;BME280;65745;50.278;18.192;2023-04-06T02:43:24;100142.41;;;-2.22;66.71
76794;BME280;65745;50.278;18.192;2023-04-06T02:46:06;100141.70;;;-2.24;66.61
76794;BME280;65745;50.278;18.192;2023-04-06T02:48:40;100141.84;;;-2.31;66.42
76794;BME280;65745;50.278;18.192;2023-04-06T02:51:13;100141.36;;;-2.38;66.45
76794;BME280;65745;50.278;18.192;2023-04-06T02:53:47;100138.52;;;-2.47;66.60
76794;BME280;65745;50.278;18.192;2023-04-06T02:56:19;100142.50;;;-2.52;67.14
76794;BME280;65745;50.278;18.192;2023-04-06T02:58:53;100142.20;;;-2.54;66.84
76794;BME280;65745;50.278;18.192;2023-04-06T03:01:27;100144.64;;;-2.57;67.52
76794;BME280;65745;50.278;18.192;2023-04-06T03:04:02;100143.19;;;-2.59;67.28
76794;BME280;65745;50.278;18.192;2023-04-06T03:06:35;100143.73;;;-2.63;68.53
76794;BME280;65745;50.278;18.192;2023-04-06T03:09:14;100148.35;;;-2.86;74.36
76794;BME280;65745;50.278;18.192;2023-04-06T03:11:47;100148.27;;;-2.80;71.20
76794;BME280;65745;50.278;18.192;2023-04-06T03:14:19;100149.80;;;-2.71;69.94
76794;BME280;65745;50.278;18.192;2023-04-06T03:16:56;100150.88;;;-2.61;70.14
76794;BME280;65745;50.278;18.192;2023-04-06T03:19:29;100152.83;;;-2.53;70.19
76794;BME280;65745;50.278;18.192;2023-04-06T03:22:02;100155.07;;;-2.46;69.69
76794;BME280;65745;50.278;18.192;2023-04-06T03:24:35;100158.19;;;-2.41;69.76
76794;BME280;65745;50.278;18.192;2023-04-06T03:27:09;100153.70;;;-2.40;69.55
76794;BME280;65745;50.278;18.192;2023-04-06T03:29:43;100151.46;;;-2.40;69.07
76794;BME280;65745;50.278;18.192;2023-04-06T03:32:17;100150.58;;;-2.34;68.89
76794;BME280;65745;50.278;18.192;2023-04-06T03:34:50;100153.15;;;-2.40;70.34
76794;BME280;65745;50.278;18.192;2023-04-06T03:37:22;100150.83;;;-2.53;69.66
76794;BME280;65745;50.278;18.192;2023-04-06T03:39:56;100147.35;;;-2.57;70.28
76794;BME280;65745;50.278;18.192;2023-04-06T03:42:28;100149.31;;;-2.60;70.25
76794;BME280;65745;50.278;18.192;2023-04-06T03:45:07;100148.55;;;-2.70;70.12
76794;BME280;65745;50.278;18.192;2023-04-06T03:47:41;100146.92;;;-2.73;70.53
76794;BME280;65745;50.278;18.192;2023-04-06T03:50:13;100154.99;;;-2.83;73.31
76794;BME280;65745;50.278;18.192;2023-04-06T03:52:47;100158.50;;;-2.85;72.40
76794;BME280;65745;50.278;18.192;2023-04-06T03:55:19;100163.47;;;-2.84;71.32
76794;BME280;65745;50.278;18.192;2023-04-06T03:57:52;100164.64;;;-2.84;70.37
76794;BME280;65745;50.278;18.192;2023-04-06T04:00:24;100160.88;;;-2.83;70.02
76794;BME280;65745;50.278;18.192;2023-04-06T04:02:59;100159.80;;;-2.73;70.03
76794;BME280;65745;50.278;18.192;2023-04-06T04:05:32;100158.34;;;-2.70;69.37
76794;BME280;65745;50.278;18.192;2023-04-06T04:08:05;100155.90;;;-2.66;69.13
76794;BME280;65745;50.278;18.192;2023-04-06T04:10:37;100159.87;;;-2.59;69.51
76794;BME280;65745;50.278;18.192;2023-04-06T04:13:09;100157.96;;;-2.52;69.48
76794;BME280;65745;50.278;18.192;2023-04-06T04:15:42;100158.90;;;-2.49;69.82
76794;BME280;65745;50.278;18.192;2023-04-06T04:18:15;100158.00;;;-2.54;70.61
76794;BME280;65745;50.278;18.192;2023-04-06T04:20:47;100162.11;;;-2.49;69.54
76794;BME280;65745;50.278;18.192;2023-04-06T04:23:19;100162.02;;;-2.30;68.76
76794;BME280;65745;50.278;18.192;2023-04-06T04:25:52;100163.66;;;-2.24;68.33
76794;BME280;65745;50.278;18.192;2023-04-06T04:28:24;100165.44;;;-2.22;67.99
76794;BME280;65745;50.278;18.192;2023-04-06T04:30:57;100172.33;;;-2.34;68.96
76794;BME280;65745;50.278;18.192;2023-04-06T04:33:30;100169.52;;;-2.38;68.34
76794;BME280;65745;50.278;18.192;2023-04-06T04:36:05;100167.46;;;-2.32;67.91
76794;BME280;65745;50.278;18.192;2023-04-06T04:38:41;100169.36;;;-2.33;67.80
76794;BME280;65745;50.278;18.192;2023-04-06T04:41:14;100169.77;;;-2.48;69.81
76794;BME280;65745;50.278;18.192;2023-04-06T04:43:46;100168.11;;;-2.61;68.89
76794;BME280;65745;50.278;18.192;2023-04-06T04:46:19;100166.54;;;-2.64;68.47
76794;BME280;65745;50.278;18.192;2023-04-06T04:48:52;100164.33;;;-2.65;68.59
76794;BME280;65745;50.278;18.192;2023-04-06T04:51:24;100166.45;;;-2.65;69.62
76794;BME280;65745;50.278;18.192;2023-04-06T04:54:26;100168.84;;;-2.71;69.55
76794;BME280;65745;50.278;18.192;2023-04-06T04:56:58;100173.35;;;-2.74;68.35
76794;BME280;65745;50.278;18.192;2023-04-06T04:59:44;100176.25;;;-2.71;68.42
76794;BME280;65745;50.278;18.192;2023-04-06T05:02:21;100175.94;;;-2.71;68.57
76794;BME280;65745;50.278;18.192;2023-04-06T05:05:04;100176.51;;;-2.68;68.55
76794;BME280;65745;50.278;18.192;2023-04-06T05:07:36;100169.51;;;-2.52;68.74
76794;BME280;65745;50.278;18.192;2023-04-06T05:10:10;100172.67;;;-2.43;69.06
76794;BME280;65745;50.278;18.192;2023-04-06T05:12:51;100171.21;;;-2.33;69.02
76794;BME280;65745;50.278;18.192;2023-04-06T05:15:24;100171.85;;;-2.16;68.71
76794;BME280;65745;50.278;18.192;2023-04-06T05:17:58;100171.40;;;-2.01;68.30
76794;BME280;65745;50.278;18.192;2023-04-06T05:20:35;100171.66;;;-2.02;69.13
76794;BME280;65745;50.278;18.192;2023-04-06T05:23:08;100177.46;;;-2.03;68.63
76794;BME280;65745;50.278;18.192;2023-04-06T05:25:40;100178.85;;;-1.99;68.96
76794;BME280;65745;50.278;18.192;2023-04-06T05:28:22;100184.61;;;-2.01;69.37
76794;BME280;65745;50.278;18.192;2023-04-06T05:30:54;100177.68;;;-1.98;68.94
76794;BME280;65745;50.278;18.192;2023-04-06T05:33:28;100173.45;;;-1.92;68.52
76794;BME280;65745;50.278;18.192;2023-04-06T05:36:11;100173.61;;;-1.87;68.39
76794;BME280;65745;50.278;18.192;2023-04-06T05:38:47;100178.60;;;-1.81;68.51
76794;BME280;65745;50.278;18.192;2023-04-06T05:41:31;100181.17;;;-1.74;68.58
76794;BME280;65745;50.278;18.192;2023-04-06T05:44:04;100181.66;;;-1.81;70.13
76794;BME280;65745;50.278;18.192;2023-04-06T05:46:37;100177.79;;;-1.81;71.13
76794;BME280;65745;50.278;18.192;2023-04-06T05:49:11;100174.57;;;-1.90;73.32
76794;BME280;65745;50.278;18.192;2023-04-06T05:51:43;100174.88;;;-1.89;71.93
76794;BME280;65745;50.278;18.192;2023-04-06T05:54:16;100173.69;;;-1.79;71.27
76794;BME280;65745;50.278;18.192;2023-04-06T05:56:48;100175.52;;;-1.66;70.67
76794;BME280;65745;50.278;18.192;2023-04-06T05:59:20;100176.02;;;-1.52;70.43
76794;BME280;65745;50.278;18.192;2023-04-06T06:01:53;100178.75;;;-1.47;70.98
76794;BME280;65745;50.278;18.192;2023-04-06T06:04:26;100183.18;;;-1.30;70.20
76794;BME280;65745;50.278;18.192;2023-04-06T06:06:59;100175.02;;;-1.18;72.38
76794;BME280;65745;50.278;18.192;2023-04-06T06:09:41;100171.79;;;-1.14;72.13
76794;BME280;65745;50.278;18.192;2023-04-06T06:12:24;100169.40;;;-0.95;71.58
76794;BME280;65745;50.278;18.192;2023-04-06T06:14:57;100167.84;;;-0.69;70.77
76794;BME280;65745;50.278;18.192;2023-04-06T06:17:30;100171.02;;;-0.37;70.11
76794;BME280;65745;50.278;18.192;2023-04-06T06:20:03;100167.02;;;-0.13;69.30
76794;BME280;65745;50.278;18.192;2023-04-06T06:22:36;100164.86;;;-0.08;69.27
76794;BME280;65745;50.278;18.192;2023-04-06T06:25:09;100161.95;;;0.02;68.85
76794;BME280;65745;50.278;18.192;2023-04-06T06:27:42;100165.95;;;0.07;68.86
76794;BME280;65745;50.278;18.192;2023-04-06T06:30:15;100164.63;;;0.22;68.86
76794;BME280;65745;50.278;18.192;2023-04-06T06:32:51;100167.55;;;0.39;68.95
76794;BME280;65745;50.278;18.192;2023-04-06T06:35:23;100170.55;;;0.49;68.57
76794;BME280;65745;50.278;18.192;2023-04-06T06:37:55;100173.06;;;0.56;68.62
76794;BME280;65745;50.278;18.192;2023-04-06T06:40:29;100169.47;;;0.66;68.07
76794;BME280;65745;50.278;18.192;2023-04-06T06:43:01;100173.29;;;0.75;68.01
76794;BME280;65745;50.278;18.192;2023-04-06T06:45:46;100167.16;;;0.81;68.68
76794;BME280;65745;50.278;18.192;2023-04-06T06:48:19;100168.27;;;0.93;67.92
76794;BME280;65745;50.278;18.192;2023-04-06T06:50:51;100162.04;;;1.04;67.72
76794;BME280;65745;50.278;18.192;2023-04-06T06:53:24;100167.02;;;1.19;67.72
76794;BME280;65745;50.278;18.192;2023-04-06T06:55:56;100164.91;;;1.32;67.45
76794;BME280;65745;50.278;18.192;2023-04-06T06:58:30;100171.06;;;1.41;67.57
76794;BME280;65745;50.278;18.192;2023-04-06T07:01:02;100168.05;;;1.53;67.90
76794;BME280;65745;50.278;18.192;2023-04-06T07:03:37;100171.36;;;1.66;67.53
76794;BME280;65745;50.278;18.192;2023-04-06T07:06:09;100170.73;;;1.76;67.33
76794;BME280;65745;50.278;18.192;2023-04-06T07:08:43;100169.45;;;1.88;67.62
76794;BME280;65745;50.278;18.192;2023-04-06T07:11:16;100167.98;;;2.04;66.60
76794;BME280;65745;50.278;18.192;2023-04-06T07:13:48;100170.27;;;2.13;66.27
76794;BME280;65745;50.278;18.192;2023-04-06T07:16:21;100170.07;;;2.23;66.21
76794;BME280;65745;50.278;18.192;2023-04-06T07:18:54;100170.54;;;2.34;66.11
76794;BME280;65745;50.278;18.192;2023-04-06T07:21:26;100171.88;;;2.48;66.15
76794;BME280;65745;50.278;18.192;2023-04-06T07:23:59;100171.46;;;2.65;65.35
76794;BME280;65745;50.278;18.192;2023-04-06T07:26:31;100176.20;;;2.80;64.95
76794;BME280;65745;50.278;18.192;2023-04-06T07:29:03;100175.20;;;2.99;64.94
76794;BME280;65745;50.278;18.192;2023-04-06T07:31:36;100175.23;;;3.18;64.35
76794;BME280;65745;50.278;18.192;2023-04-06T07:34:08;100176.73;;;3.34;63.24
76794;BME280;65745;50.278;18.192;2023-04-06T07:36:42;100174.40;;;3.60;63.50
76794;BME280;65745;50.278;18.192;2023-04-06T07:39:16;100176.02;;;3.89;63.06
76794;BME280;65745;50.278;18.192;2023-04-06T07:41:49;100174.86;;;4.10;62.68
76794;BME280;65745;50.278;18.192;2023-04-06T07:44:21;100179.05;;;4.25;62.07
76794;BME280;65745;50.278;18.192;2023-04-06T07:46:54;100172.06;;;4.43;61.60
76794;BME280;65745;50.278;18.192;2023-04-06T07:49:26;100174.60;;;4.60;61.23
76794;BME280;65745;50.278;18.192;2023-04-06T07:51:59;100169.42;;;4.77;61.06
76794;BME280;65745;50.278;18.192;2023-04-06T07:54:31;100163.37;;;4.93;60.87
76794;BME280;65745;50.278;18.192;2023-04-06T07:57:04;100166.81;;;5.16;60.02
76794;BME280;65745;50.278;18.192;2023-04-06T07:59:36;100168.38;;;5.39;59.55
76794;BME280;65745;50.278;18.192;2023-04-06T08:02:09;100165.77;;;5.57;58.98
76794;BME280;65745;50.278;18.192;2023-04-06T08:04:41;100163.29;;;5.75;57.97
76794;BME280;65745;50.278;18.192;2023-04-06T08:07:15;100164.23;;;5.92;56.92
76794;BME280;65745;50.278;18.192;2023-04-06T08:09:48;100161.25;;;6.10;56.59
76794;BME280;65745;50.278;18.192;2023-04-06T08:12:21;100156.23;;;6.17;55.42
76794;BME280;65745;50.278;18.192;2023-04-06T08:14:53;100150.90;;;6.24;56.03
76794;BME280;65745;50.278;18.192;2023-04-06T08:17:27;100154.56;;;6.39;55.25
76794;BME280;65745;50.278;18.192;2023-04-06T08:20:01;100152.10;;;6.42;53.95
76794;BME280;65745;50.278;18.192;2023-04-06T08:22:35;100144.50;;;6.53;54.88
76794;BME280;65745;50.278;18.192;2023-04-06T08:25:08;100144.11;;;6.69;54.49
76794;BME280;65745;50.278;18.192;2023-04-06T08:27:40;100142.55;;;6.81;54.01
76794;BME280;65745;50.278;18.192;2023-04-06T08:30:13;100143.20;;;6.89;52.87
76794;BME280;65745;50.278;18.192;2023-04-06T08:32:46;100139.37;;;7.01;52.25
76794;BME280;65745;50.278;18.192;2023-04-06T08:35:18;100139.06;;;7.15;52.63
76794;BME280;65745;50.278;18.192;2023-04-06T08:37:51;100135.45;;;7.29;50.70
76794;BME280;65745;50.278;18.192;2023-04-06T08:40:23;100134.83;;;7.31;51.15
76794;BME280;65745;50.278;18.192;2023-04-06T08:42:57;100133.28;;;7.40;51.70
76794;BME280;65745;50.278;18.192;2023-04-06T08:45:33;100134.67;;;7.55;51.62
76794;BME280;65745;50.278;18.192;2023-04-06T08:48:06;100136.88;;;7.64;51.60
76794;BME280;65745;50.278;18.192;2023-04-06T08:50:39;100134.31;;;7.74;49.61
76794;BME280;65745;50.278;18.192;2023-04-06T08:53:12;100132.84;;;7.80;50.45
76794;BME280;65745;50.278;18.192;2023-04-06T08:55:45;100127.05;;;7.96;50.15
76794;BME280;65745;50.278;18.192;2023-04-06T08:58:19;100119.69;;;8.12;49.71
76794;BME280;65745;50.278;18.192;2023-04-06T09:01:11;100118.88;;;8.29;48.76
76794;BME280;65745;50.278;18.192;2023-04-06T09:03:46;100116.37;;;8.35;48.74
76794;BME280;65745;50.278;18.192;2023-04-06T09:06:19;100119.49;;;8.37;48.52
76794;BME280;65745;50.278;18.192;2023-04-06T09:08:51;100115.02;;;8.36;48.30
76794;BME280;65745;50.278;18.192;2023-04-06T09:11:23;100117.73;;;8.26;47.35
76794;BME280;65745;50.278;18.192;2023-04-06T09:13:57;100117.00;;;8.20;46.88
76794;BME280;65745;50.278;18.192;2023-04-06T09:16:40;100110.58;;;8.22;46.48
76794;BME280;65745;50.278;18.192;2023-04-06T09:19:13;100111.08;;;8.27;46.05
76794;BME280;65745;50.278;18.192;2023-04-06T09:21:46;100105.16;;;8.34;45.36
76794;BME280;65745;50.278;18.192;2023-04-06T09:24:18;100108.80;;;8.52;46.55
76794;BME280;65745;50.278;18.192;2023-04-06T09:26:56;100113.41;;;8.73;45.94
76794;BME280;65745;50.278;18.192;2023-04-06T09:29:28;100113.47;;;9.03;46.19
76794;BME280;65745;50.278;18.192;2023-04-06T09:32:06;100116.02;;;9.26;44.83
76794;BME280;65745;50.278;18.192;2023-04-06T09:34:39;100112.55;;;9.49;43.90
76794;BME280;65745;50.278;18.192;2023-04-06T09:37:16;100110.09;;;9.60;43.00
76794;BME280;65745;50.278;18.192;2023-04-06T09:39:49;100109.64;;;9.62;44.23
76794;BME280;65745;50.278;18.192;2023-04-06T09:42:29;100108.24;;;9.55;44.15
76794;BME280;65745;50.278;18.192;2023-04-06T09:45:05;100106.27;;;9.33;43.53
76794;BME280;65745;50.278;18.192;2023-04-06T09:47:42;100101.60;;;9.03;42.45
76794;BME280;65745;50.278;18.192;2023-04-06T09:50:16;100104.41;;;8.82;43.10
76794;BME280;65745;50.278;18.192;2023-04-06T09:52:51;100101.16;;;8.59;43.24
76794;BME280;65745;50.278;18.192;2023-04-06T09:55:29;100098.84;;;8.62;44.38
76794;BME280;65745;50.278;18.192;2023-04-06T09:58:06;100099.61;;;9.05;43.84
76794;BME280;65745;50.278;18.192;2023-04-06T10:00:46;100097.80;;;9.32;43.76
76794;BME280;65745;50.278;18.192;2023-04-06T10:03:31;100097.50;;;9.53;43.23
76794;BME280;65745;50.278;18.192;2023-04-06T10:06:13;100095.20;;;9.50;42.56
76794;BME280;65745;50.278;18.192;2023-04-06T10:08:49;100088.86;;;9.57;42.26
76794;BME280;65745;50.278;18.192;2023-04-06T10:11:22;100084.19;;;9.43;41.68
76794;BME280;65745;50.278;18.192;2023-04-06T10:13:56;100076.97;;;9.25;41.72
76794;BME280;65745;50.278;18.192;2023-04-06T10:16:29;100075.21;;;9.18;40.23
76794;BME280;65745;50.278;18.192;2023-04-06T10:19:06;100071.56;;;9.34;41.82
76794;BME280;65745;50.278;18.192;2023-04-06T10:21:45;100073.92;;;9.27;41.75
76794;BME280;65745;50.278;18.192;2023-04-06T10:24:21;100071.48;;;9.01;41.19
76794;BME280;65745;50.278;18.192;2023-04-06T10:27:00;100066.77;;;9.05;41.62
76794;BME280;65745;50.278;18.192;2023-04-06T10:29:45;100062.44;;;9.34;41.44
76794;BME280;65745;50.278;18.192;2023-04-06T10:32:19;100057.14;;;9.67;40.87
76794;BME280;65745;50.278;18.192;2023-04-06T10:34:52;100050.73;;;10.00;39.56
76794;BME280;65745;50.278;18.192;2023-04-06T10:37:24;100051.95;;;10.27;39.47
76794;BME280;65745;50.278;18.192;2023-04-06T10:39:56;100050.23;;;10.42;40.43
76794;BME280;65745;50.278;18.192;2023-04-06T10:42:38;100045.15;;;10.62;40.57
76794;BME280;65745;50.278;18.192;2023-04-06T10:45:18;100046.98;;;10.90;38.97
76794;BME280;65745;50.278;18.192;2023-04-06T10:47:51;100038.13;;;11.04;39.17
76794;BME280;65745;50.278;18.192;2023-04-06T10:50:24;100031.69;;;11.18;38.70
76794;BME280;65745;50.278;18.192;2023-04-06T10:53:08;100027.11;;;11.31;38.93
76794;BME280;65745;50.278;18.192;2023-04-06T10:55:42;100026.84;;;11.35;38.60
76794;BME280;65745;50.278;18.192;2023-04-06T10:58:15;100027.52;;;11.54;38.57
76794;BME280;65745;50.278;18.192;2023-04-06T11:00:48;100024.09;;;11.64;38.71
76794;BME280;65745;50.278;18.192;2023-04-06T11:03:21;100022.39;;;11.46;37.93
76794;BME280;65745;50.278;18.192;2023-04-06T11:05:53;100017.71;;;11.45;38.60
76794;BME280;65745;50.278;18.192;2023-04-06T11:08:29;100018.80;;;11.29;37.20
76794;BME280;65745;50.278;18.192;2023-04-06T11:11:09;100013.19;;;11.33;37.62
76794;BME280;65745;50.278;18.192;2023-04-06T11:13:44;100009.91;;;11.62;38.71
76794;BME280;65745;50.278;18.192;2023-04-06T11:16:18;100010.28;;;11.92;38.42
76794;BME280;65745;50.278;18.192;2023-04-06T11:18:53;100012.68;;;11.92;37.16
76794;BME280;65745;50.278;18.192;2023-04-06T11:21:37;100008.55;;;11.72;36.08
76794;BME280;65745;50.278;18.192;2023-04-06T11:24:13;100013.74;;;11.82;36.61
76794;BME280;65745;50.278;18.192;2023-04-06T11:26:47;100003.51;;;11.89;35.41
76794;BME280;65745;50.278;18.192;2023-04-06T11:29:23;100003.05;;;12.04;36.55
76794;BME280;65745;50.278;18.192;2023-04-06T11:32:00;100002.16;;;12.14;36.95
76794;BME280;65745;50.278;18.192;2023-04-06T11:34:34;99999.30;;;12.19;36.88
76794;BME280;65745;50.278;18.192;2023-04-06T11:37:11;99996.51;;;12.05;36.18
76794;BME280;65745;50.278;18.192;2023-04-06T11:39:50;99992.49;;;11.93;36.28
76794;BME280;65745;50.278;18.192;2023-04-06T11:42:26;99990.44;;;12.03;36.12
76794;BME280;65745;50.278;18.192;2023-04-06T11:45:06;99994.75;;;12.05;36.50
76794;BME280;65745;50.278;18.192;2023-04-06T11:47:39;99994.20;;;12.25;35.76
76794;BME280;65745;50.278;18.192;2023-04-06T11:50:15;99983.71;;;12.52;36.49
76794;BME280;65745;50.278;18.192;2023-04-06T11:53:00;99980.04;;;12.62;35.58
76794;BME280;65745;50.278;18.192;2023-04-06T11:55:38;99975.77;;;12.66;35.18
76794;BME280;65745;50.278;18.192;2023-04-06T11:58:11;99979.48;;;12.46;35.41
76794;BME280;65745;50.278;18.192;2023-04-06T12:00:45;99975.17;;;12.60;35.52
76794;BME280;65745;50.278;18.192;2023-04-06T12:03:17;99970.16;;;12.74;35.30
76794;BME280;65745;50.278;18.192;2023-04-06T12:05:50;99972.45;;;12.62;35.33
76794;BME280;65745;50.278;18.192;2023-04-06T12:08:24;99974.00;;;12.63;35.01
76794;BME280;65745;50.278;18.192;2023-04-06T12:10:58;99975.17;;;12.47;35.90
76794;BME280;65745;50.278;18.192;2023-04-06T12:13:31;99970.27;;;12.30;35.46
76794;BME280;65745;50.278;18.192;2023-04-06T12:16:04;99970.45;;;12.30;36.04
76794;BME280;65745;50.278;18.192;2023-04-06T12:18:37;99967.41;;;12.36;36.16
76794;BME280;65745;50.278;18.192;2023-04-06T12:21:10;99970.86;;;12.22;35.60
76794;BME280;65745;50.278;18.192;2023-04-06T12:23:43;99976.41;;;12.12;35.62
76794;BME280;65745;50.278;18.192;2023-04-06T12:26:16;99969.32;;;12.00;36.05
76794;BME280;65745;50.278;18.192;2023-04-06T12:28:48;99965.73;;;12.03;35.65
76794;BME280;65745;50.278;18.192;2023-04-06T12:31:22;99962.79;;;11.90;35.76
76794;BME280;65745;50.278;18.192;2023-04-06T12:33:56;99960.55;;;11.71;35.74
76794;BME280;65745;50.278;18.192;2023-04-06T12:36:28;99956.00;;;11.58;35.92
76794;BME280;65745;50.278;18.192;2023-04-06T12:39:02;99952.34;;;11.35;36.46
76794;BME280;65745;50.278;18.192;2023-04-06T12:41:35;99953.61;;;11.20;36.76
76794;BME280;65745;50.278;18.192;2023-04-06T12:44:08;99951.98;;;10.97;36.71
76794;BME280;65745;50.278;18.192;2023-04-06T12:46:40;99945.85;;;10.74;37.22
76794;BME280;65745;50.278;18.192;2023-04-06T12:49:14;99946.66;;;10.46;37.15
76794;BME280;65745;50.278;18.192;2023-04-06T12:51:49;99949.83;;;10.25;37.65
76794;BME280;65745;50.278;18.192;2023-04-06T12:54:21;99943.23;;;10.08;37.81
76794;BME280;65745;50.278;18.192;2023-04-06T12:56:54;99937.54;;;10.00;38.21
76794;BME280;65745;50.278;18.192;2023-04-06T12:59:27;99942.41;;;9.96;38.50
76794;BME280;65745;50.278;18.192;2023-04-06T13:02:06;99942.06;;;9.88;38.47
76794;BME280;65745;50.278;18.192;2023-04-06T13:04:38;99939.27;;;9.78;38.59
76794;BME280;65745;50.278;18.192;2023-04-06T13:07:11;99941.05;;;9.67;38.35
76794;BME280;65745;50.278;18.192;2023-04-06T13:09:43;99940.73;;;9.54;39.10
76794;BME280;65745;50.278;18.192;2023-04-06T13:12:20;99936.66;;;9.35;38.91
76794;BME280;65745;50.278;18.192;2023-04-06T13:14:53;99933.61;;;9.23;39.18
76794;BME280;65745;50.278;18.192;2023-04-06T13:17:26;99933.36;;;9.14;39.57
76794;BME280;65745;50.278;18.192;2023-04-06T13:19:59;99927.15;;;9.07;39.77
76794;BME280;65745;50.278;18.192;2023-04-06T13:22:32;99925.73;;;8.92;40.18
76794;BME280;65745;50.278;18.192;2023-04-06T13:25:05;99930.15;;;8.84;40.37